EW4608 Weather Reports


Display with metric or nautical units.
time (UTC)temp
F
wind
direction
speed
MPH
gust
MPH
rain 1hr
in
rain 24hr
in
rain mn
in
humidity
%
barometer
mb
20220518191527 74 227 0.0 8.0 0.00 0.00 0.00 64 1008.0
20220518190024 75 217 3.0 7.0 0.00 0.00 0.00 65 1008.4
20220518184532 74 240 1.0 4.0 0.00 0.00 0.00 67 1008.8
20220518183036 74 236 1.0 9.0 0.00 0.00 0.00 65 1008.9
20220518181521 74 193 3.0 8.0 0.00 0.00 0.00 66 1008.9
20220518180017 73 169 2.0 8.0 0.00 0.00 0.00 68 1008.4
20220518174513 72 209 2.0 6.0 0.00 0.00 0.00 70 1008.1
20220518173016 71 172 5.0 8.0 0.00 0.00 0.00 72 1008.5
20220518171506 69 174 6.0 11.0 0.00 0.00 0.00 75 1009.1
20220518170004 67 141 3.0 7.0 0.00 0.00 0.00 44 1009.9
20220518164601 66 101 3.0 6.0 0.00 0.00 0.00 40 1011.1
20220518163056 67 134 1.0 3.0 0.00 0.00 0.00 40 1012.4
20220518161553 67 199 0.0 1.0 0.00 0.00 0.00 40 1013.2
20220518160054 66 219 0.0 0.0 0.00 0.00 0.00 40 1013.4
20220518154601 66 121 0.0 0.0 0.00 0.00 0.00 41 1013.5
20220518153044 65 131 1.0 3.0 0.00 0.00 0.00 45 1013.6
20220518151542 64 306 0.0 1.0 0.00 0.00 0.00 48 1014.2
20220518150040 64 306 0.0 0.0 0.00 0.00 0.00 50 1014.5
20220518144539 63 306 0.0 0.0 0.00 0.00 0.00 52 1014.7
20220518143039 63 306 0.0 0.0 0.00 0.00 0.00 51 1014.8
20220518141541 63 306 0.0 2.0 0.00 0.00 0.00 55 1015.0
20220518140038 64 146 1.0 2.0 0.00 0.00 0.00 65 1014.0
20220518134537 64 206 1.0 4.0 0.00 0.00 0.00 68 1014.1
20220518133034 64 221 0.0 2.0 0.00 0.00 0.00 56 1013.9
20220518131537 63 231 0.0 0.0 0.00 0.00 0.00 50 1013.8
20220518130029 63 222 0.0 0.0 0.00 0.00 0.00 45 1013.7
20220518124545 62 247 0.0 0.0 0.00 0.00 0.00 43 1013.6
20220518123023 60 247 0.0 0.0 0.00 0.00 0.00 43 1013.7
20220518121520 59 236 0.0 0.0 0.00 0.00 0.00 44 1013.7
20220518120022 59 236 0.0 0.0 0.00 0.00 0.00 45 1013.8
20220518114518 57 236 0.0 0.0 0.00 0.00 0.00 45 1013.7
20220518113030 57 236 0.0 0.0 0.00 0.00 0.00 45 1013.8
20220518111517 57 236 0.0 0.0 0.00 0.00 0.00 45 1013.9
20220518110120 57 236 0.0 0.0 0.00 0.00 0.00 45 1013.5
20220518104516 57 236 0.0 0.0 0.00 0.00 0.00 45 1013.9
20220518103029 57 233 0.0 0.0 0.00 0.00 0.00 46 1013.7
20220518101514 56 233 0.0 0.0 0.00 0.00 0.00 46 1013.6
20220518100015 56 233 0.0 0.0 0.00 0.00 0.00 46 1013.9
20220518094540 55 233 0.0 0.0 0.00 0.00 0.00 46 1013.9
20220518093015 55 233 0.0 0.0 0.00 0.00 0.00 46 1013.6
20220518091522 55 233 0.0 0.0 0.00 0.00 0.00 46 1013.9
20220518090012 55 233 0.0 0.0 0.00 0.00 0.00 46 1013.6
20220518084516 55 232 0.0 0.0 0.00 0.00 0.00 46 1013.7
20220518083023 55 232 0.0 0.0 0.00 0.00 0.00 47 1013.9
20220518081513 55 232 0.0 0.0 0.00 0.00 0.00 46 1014.0
20220518080007 55 232 0.0 0.0 0.00 0.00 0.00 47 1014.0
20220518074506 54 232 0.0 0.0 0.00 0.00 0.00 47 1014.0
20220518073004 55 232 0.0 0.0 0.00 0.00 0.00 47 1014.1
20220518071505 55 231 0.0 0.0 0.00 0.00 0.00 48 1014.1
20220518070100 55 231 0.0 0.0 0.00 0.00 0.00 47 1014.5
20220518070001 55 231 0.0 0.0 0.00 0.00 0.00 47 1014.5
20220518064614 55 231 0.0 0.0 0.00 0.00 0.00 48 1014.5
20220518063100 56 231 0.0 0.0 0.00 0.00 0.00 49 1014.5
20220518061559 56 231 0.0 0.0 0.00 0.00 0.00 49 1014.8
20220518060100 57 231 0.0 0.0 0.00 0.00 0.00 49 1014.9
20220518054549 57 230 0.0 0.0 0.00 0.00 0.00 50 1014.9
20220518053049 57 230 0.0 0.0 0.00 0.00 0.00 51 1015.1
20220518051544 57 230 0.0 0.0 0.00 0.00 0.00 53 1015.1
20220518050042 58 230 0.0 0.0 0.00 0.00 0.00 53 1015.1
20220518044539 58 230 0.0 0.0 0.00 0.00 0.00 54 1015.2
20220518043039 58 230 0.0 0.0 0.00 0.00 0.00 56 1015.3
20220518041533 59 231 0.0 0.0 0.00 0.00 0.00 56 1015.3
20220518040031 59 231 0.0 0.0 0.00 0.00 0.00 56 1015.3
20220518034531 59 230 0.0 0.0 0.00 0.00 0.00 62 1015.3
20220518033033 60 230 0.0 0.0 0.00 0.00 0.00 63 1015.4
20220518031530 61 230 0.0 0.0 0.00 0.00 0.00 65 1015.4
20220518030028 61 230 0.0 0.0 0.00 0.00 0.00 69 1015.2
20220518024529 62 230 0.0 0.0 0.00 0.00 0.00 71 1015.0
20220518023040 62 231 0.0 0.0 0.00 0.00 0.00 73 1015.0
20220518021538 63 231 0.0 0.0 0.00 0.00 0.00 74 1014.9
20220518020031 64 231 0.0 0.0 0.00 0.00 0.00 74 1014.7
20220518014639 65 231 0.0 0.0 0.00 0.00 0.00 73 1014.6
20220518013025 66 231 0.0 0.0 0.00 0.00 0.00 72 1014.6
20220518011525 68 231 0.0 0.0 0.00 0.00 0.00 70 1014.5
20220518010026 69 120 0.0 0.0 0.00 0.00 0.00 67 1014.4
20220518004524 71 120 0.0 1.0 0.00 0.00 0.00 65 1014.4
20220518003034 73 120 0.0 0.0 0.00 0.00 0.00 63 1014.2
20220518001523 77 120 0.0 0.0 0.00 0.00 0.00 60 1014.1
20220518000033 81 276 0.0 1.0 0.00 0.00 0.00 49 1014.3
20220517234521 82 277 0.0 0.0 0.00 0.00 0.00 51 1014.1
20220517233018 80 278 0.0 0.0 0.00 0.00 0.00 57 1014.1
20220517231519 80 278 0.0 0.0 0.00 0.00 0.00 43 1014.2
20220517230033 83 224 0.0 2.0 0.00 0.00 0.00 40 1014.1
20220517224616 83 276 0.0 2.0 0.00 0.00 0.00 45 1014.0
20220517223015 85 340 0.0 3.0 0.00 0.00 0.00 37 1014.2
20220517221515 86 287 0.0 2.0 0.00 0.00 0.00 39 1014.0
20220517220011 86 355 0.0 4.0 0.00 0.00 0.00 38 1014.1
20220517214510 85 284 0.0 2.0 0.00 0.00 0.00 39 1014.2
20220517213008 85 295 1.0 5.0 0.00 0.00 0.00 37 1014.3
20220517211506 85 245 1.0 6.0 0.00 0.00 0.00 37 1014.4
20220517210005 85 223 1.0 5.0 0.00 0.00 0.00 40 1014.6
20220517204508 84 340 1.0 4.0 0.00 0.00 0.00 38 1014.8
20220517203002 84 219 2.0 6.0 0.00 0.00 0.00 41 1014.7
20220517201501 84 224 1.0 7.0 0.00 0.00 0.00 43 1014.8
20220517200000 83 28 2.0 5.0 0.00 0.00 0.00 38 1014.9
20220517194608 84 275 1.0 6.0 0.00 0.00 0.00 39 1014.8
20220517193059 83 255 1.0 10.0 0.00 0.00 0.00 43 1015.1